Time;durP1;ratioP1;P1;durP2;ratioP2;P2;SDS_P1;SDS_P2;PMS_P1;PMS_P2;Temp;Humidity;BMP_temperature;BMP_pressure;BME280_temperature;BME280_humidity;BME280_pressure;Samples;Min_cycle;Max_cycle;Signal;HPM_P1;HPM_P2
2021/04/12 00:01:17;;;;;;;1.38;0.40;;;14.90;51.80;;;;;;4975570;28;20023;-38
2021/04/12 00:03:52;;;;;;;0.40;0.40;;;14.90;86.30;;;;;;4954277;28;20082;-38
2021/04/12 00:06:23;;;;;;;0.32;0.20;;;15.00;55.50;;;;;;4956110;29;20031;-38
2021/04/12 00:09:06;;;;;;;2.80;0.40;;;14.90;81.30;;;;;;4955960;29;20033;-38
2021/04/12 00:11:35;;;;;;;0.80;0.35;;;14.90;82.80;;;;;;4956063;29;20113;-38
2021/04/12 00:14:13;;;;;;;0.80;0.38;;;14.90;83.40;;;;;;4955997;29;20038;-38
2021/04/12 00:16:52;;;;;;;0.68;0.30;;;15.00;79.60;;;;;;4956022;29;20035;-38
2021/04/12 00:19:33;;;;;;;0.47;0.40;;;14.80;50.40;;;;;;4955705;29;20102;-38
2021/04/12 00:22:17;;;;;;;0.73;0.43;;;14.80;69.40;;;;;;4955872;29;20038;-38
2021/04/12 00:24:56;;;;;;;0.75;0.50;;;14.80;50.40;;;;;;4955809;29;20114;-38
2021/04/12 00:27:26;;;;;;;0.50;0.30;;;14.80;81.70;;;;;;4955774;29;20035;-37
2021/04/12 00:30:14;;;;;;;0.65;0.50;;;14.60;51.00;;;;;;4955738;29;20023;-38
2021/04/12 00:32:48;;;;;;;1.08;0.30;;;14.70;80.80;;;;;;4955551;29;20151;-38
2021/04/12 00:35:20;;;;;;;0.35;0.20;;;14.70;50.80;;;;;;4955324;29;20058;-37
2021/04/12 00:37:57;;;;;;;0.32;0.32;;;14.70;80.60;;;;;;4955360;29;20474;-38
2021/04/12 00:40:41;;;;;;;0.50;0.30;;;14.60;50.90;;;;;;4955480;29;20027;-38
2021/04/12 00:43:17;;;;;;;1.17;0.40;;;14.60;50.90;;;;;;4955372;29;20031;-38
2021/04/12 00:45:50;;;;;;;0.45;0.30;;;14.70;80.60;;;;;;4955410;29;20020;-38
2021/04/12 00:48:54;;;;;;;0.55;0.40;;;14.60;80.00;;;;;;4955096;29;20079;-38
2021/04/12 00:51:45;;;;;;;0.77;0.30;;;14.70;50.60;;;;;;4954083;28;20086;-38
2021/04/12 00:54:13;;;;;;;;;;;14.70;50.70;;;;;;4955728;29;20027;-38
2021/04/12 00:56:46;;;;;;;0.98;0.30;;;14.10;80.20;;;;;;4955191;29;19918;-38
2021/04/12 00:59:48;;;;;;;0.93;0.20;;;14.60;80.30;;;;;;4955140;29;20031;-38
2021/04/12 01:02:39;;;;;;;0.40;0.40;;;14.60;80.60;;;;;;4954983;28;20162;-38
2021/04/12 01:05:09;;;;;;;;;;;14.60;50.80;;;;;;4954965;29;20059;-38
2021/04/12 01:08:03;;;;;;;0.75;0.43;;;14.30;80.60;;;;;;4955003;29;19907;-37
2021/04/12 01:10:47;;;;;;;0.90;0.60;;;14.60;80.70;;;;;;4955008;29;20114;-38
2021/04/12 01:13:36;;;;;;;0.47;0.30;;;14.60;50.80;;;;;;4954614;29;20035;-37
2021/04/12 01:16:11;;;;;;;0.22;0.20;;;14.40;80.90;;;;;;4947261;29;20110;-38
2021/04/12 01:19:04;;;;;;;0.95;0.30;;;14.80;81.00;;;;;;4954541;29;20079;-37
2021/04/12 01:22:27;;;;;;;0.50;0.30;;;14.50;50.80;;;;;;4954523;29;20510;-38
2021/04/12 01:25:13;;;;;;;0.45;0.28;;;14.60;80.90;;;;;;4913898;29;20032;-38
2021/04/12 01:28:09;;;;;;;1.25;0.30;;;14.50;50.90;;;;;;4914002;29;20426;-38
2021/04/12 01:31:24;;;;;;;0.90;0.77;;;14.50;50.90;;;;;;4946723;29;20039;-37
2021/04/12 01:34:27;;;;;;;0.20;0.20;;;14.50;81.40;;;;;;4954590;29;20058;-38
2021/04/12 01:37:19;;;;;;;0.30;0.30;;;14.50;50.90;;;;;;4954489;29;20031;-38
2021/04/12 01:40:04;;;;;;;1.45;0.45;;;14.40;82.20;;;;;;4954468;29;20031;-37
2021/04/12 01:42:54;;;;;;;0.82;0.30;;;14.40;82.80;;;;;;4954135;29;20028;-38
2021/04/12 01:45:19;;;;;;;0.50;0.20;;;14.40;82.90;;;;;;4954386;29;20024;-38
2021/04/12 01:48:06;;;;;;;0.73;0.35;;;14.30;51.70;;;;;;4954370;29;20390;-38
2021/04/12 01:51:05;;;;;;;0.43;0.20;;;14.40;83.20;;;;;;4954344;29;20027;-38
2021/04/12 01:54:05;;;;;;;0.73;0.30;;;14.30;81.50;;;;;;4954350;29;20039;-38
2021/04/12 01:56:45;;;;;;;;;;;14.40;51.10;;;;;;4954488;29;20109;-37
2021/04/12 01:59:20;;;;;;;0.33;0.10;;;14.60;82.50;;;;;;4954043;29;19915;-38
2021/04/12 02:02:05;;;;;;;0.65;0.20;;;14.40;82.70;;;;;;4954212;29;20333;-38
2021/04/12 02:04:58;;;;;;;1.30;0.30;;;14.40;81.80;;;;;;4953698;28;20130;-38
2021/04/12 02:07:27;;;;;;;0.80;0.35;;;14.30;82.20;;;;;;4953911;29;20028;-38
2021/04/12 02:10:01;;;;;;;0.80;0.20;;;14.20;82.10;;;;;;4954146;29;20106;-38
2021/04/12 02:12:57;;;;;;;1.13;0.32;;;14.50;82.20;;;;;;4954116;29;20094;-38
2021/04/12 02:15:29;;;;;;;4.20;0.32;;;14.30;82.00;;;;;;4953831;29;20052;-38
2021/04/12 02:18:01;;;;;;;0.47;0.30;;;14.30;82.40;;;;;;4953801;29;20114;-38
2021/04/12 02:20:40;;;;;;;1.40;0.28;;;14.20;82.20;;;;;;4954079;29;20027;-38
2021/04/12 02:23:35;;;;;;;0.30;0.20;;;14.20;82.40;;;;;;4954040;29;20063;-38
2021/04/12 02:26:17;;;;;;;0.40;0.20;;;14.20;51.20;;;;;;4954031;29;20042;-38
2021/04/12 02:29:04;;;;;;;1.17;0.30;;;14.20;82.30;;;;;;4954007;29;20074;-37
2021/04/12 02:32:27;;;;;;;0.40;0.25;;;14.00;82.00;;;;;;4953836;29;20031;-38
2021/04/12 02:35:22;;;;;;;0.68;0.30;;;14.20;51.30;;;;;;4894275;29;20059;-37
2021/04/12 02:38:06;;;;;;;0.68;0.28;;;14.20;82.30;;;;;;4953178;29;20044;-38
2021/04/12 02:41:04;;;;;;;0.20;0.20;;;14.20;82.30;;;;;;4953737;29;20038;-37
2021/04/12 02:43:52;;;;;;;0.70;0.47;;;14.20;82.40;;;;;;4953560;29;20027;-38
2021/04/12 02:46:42;;;;;;;0.63;0.30;;;14.30;82.80;;;;;;4953833;29;20058;-38
2021/04/12 02:49:16;;;;;;;0.50;0.20;;;14.00;82.20;;;;;;4953679;29;20485;-38
2021/04/12 02:52:09;;;;;;;0.43;0.20;;;14.10;82.20;;;;;;4953382;29;20079;-38
2021/04/12 02:55:03;;;;;;;0.57;0.30;;;14.10;82.60;;;;;;4953555;29;20035;-38
2021/04/12 02:57:59;;;;;;;1.15;0.30;;;14.20;82.90;;;;;;4953763;29;20043;-38
2021/04/12 03:00:32;;;;;;;1.20;0.20;;;14.10;52.00;;;;;;4953771;29;20122;-37
2021/04/12 03:03:35;;;;;;;0.38;0.20;;;14.10;51.60;;;;;;4953456;28;20098;-38
2021/04/12 03:06:37;;;;;;;0.98;0.40;;;14.10;51.50;;;;;;4953686;29;20031;-37
2021/04/12 03:09:43;;;;;;;0.75;0.20;;;14.10;51.40;;;;;;4953349;29;20031;-38
2021/04/12 03:12:36;;;;;;;0.15;0.15;;;14.00;82.50;;;;;;4953439;29;20367;-38
2021/04/12 03:15:31;;;;;;;0.63;0.30;;;14.00;82.60;;;;;;4954698;28;20039;-38
2021/04/12 03:18:21;;;;;;;0.30;0.20;;;14.10;82.30;;;;;;4956816;29;20122;-38
2021/04/12 03:21:29;;;;;;;0.45;0.20;;;14.00;52.20;;;;;;4957006;29;20094;-38
2021/04/12 03:24:30;;;;;;;0.20;0.20;;;14.00;51.50;;;;;;4956959;29;20386;-38
2021/04/12 03:27:30;;;;;;;0.55;0.30;;;14.10;51.60;;;;;;4956855;29;20019;-38
2021/04/12 03:30:20;;;;;;;0.40;0.20;;;13.90;82.80;;;;;;4956853;29;20059;-38
2021/04/12 03:33:12;;;;;;;0.38;0.30;;;13.90;51.50;;;;;;4956729;29;20035;-37
2021/04/12 03:35:54;;;;;;;0.20;0.20;;;13.80;82.50;;;;;;4956698;29;20064;-38
2021/04/12 03:38:38;;;;;;;0.10;0.10;;;13.90;52.20;;;;;;4956907;29;20046;-38
2021/04/12 03:41:41;;;;;;;1.02;0.30;;;14.00;51.60;;;;;;4956651;29;20057;-37
2021/04/12 03:44:10;;;;;;;0.20;0.10;;;14.00;51.60;;;;;;4956170;29;20043;-38
2021/04/12 03:47:05;;;;;;;0.30;0.25;;;13.80;52.60;;;;;;4956430;29;20025;-38
2021/04/12 03:49:55;;;;;;;0.32;0.20;;;13.90;51.60;;;;;;4956471;29;20035;-38
2021/04/12 03:52:41;;;;;;;0.30;0.13;;;13.90;51.60;;;;;;4956018;29;20516;-37
2021/04/12 03:55:44;;;;;;;0.30;0.20;;;13.90;82.10;;;;;;4956149;29;20027;-38
2021/04/12 03:58:32;;;;;;;0.30;0.20;;;13.90;82.00;;;;;;4956286;29;20031;-38
2021/04/12 04:01:16;;;;;;;0.20;0.15;;;13.70;81.50;;;;;;4955930;29;20032;-38
2021/04/12 04:03:52;;;;;;;0.32;0.30;;;13.90;51.50;;;;;;4955950;28;20814;-37
2021/04/12 04:06:17;;;;;;;0.10;0.10;;;13.90;77.10;;;;;;4955965;29;20055;-37
2021/04/12 04:08:48;;;;;;;0.95;0.30;;;13.70;51.90;;;;;;4956224;29;20039;-37
2021/04/12 04:11:43;;;;;;;0.50;0.35;;;13.80;51.60;;;;;;4956047;29;20043;-38
2021/04/12 04:14:42;;;;;;;0.70;0.30;;;14.00;81.40;;;;;;4955724;29;20506;-38
2021/04/12 04:17:41;;;;;;;0.40;0.20;;;13.80;81.60;;;;;;4955932;29;20032;-38
2021/04/12 04:20:17;;;;;;;1.35;0.20;;;13.70;52.00;;;;;;4956006;29;20027;-37
2021/04/12 04:22:45;;;;;;;0.30;0.22;;;13.80;81.50;;;;;;4955914;29;20031;-37
2021/04/12 04:25:42;;;;;;;0.60;0.30;;;13.80;81.30;;;;;;4955773;29;20122;-37
2021/04/12 04:28:32;;;;;;;0.10;0.10;;;13.80;51.80;;;;;;4955780;29;20035;-37
2021/04/12 04:30:57;;;;;;;0.50;0.20;;;13.70;81.30;;;;;;4955275;29;20031;-37
2021/04/12 04:33:39;;;;;;;0.60;0.20;;;13.80;81.40;;;;;;4955608;29;20042;-37
2021/04/12 04:36:47;;;;;;;0.20;0.20;;;13.90;81.70;;;;;;4955645;29;20360;-37
2021/04/12 04:39:47;;;;;;;1.08;0.32;;;13.80;81.60;;;;;;4955600;29;20057;-37
2021/04/12 04:42:43;;;;;;;0.30;0.15;;;13.80;81.90;;;;;;4955622;29;20043;-37
2021/04/12 04:45:15;;;;;;;2.33;0.50;;;13.80;81.70;;;;;;4955395;29;20031;-37
2021/04/12 04:48:11;;;;;;;0.20;0.17;;;13.80;81.60;;;;;;4955154;29;20031;-37
2021/04/12 04:51:01;;;;;;;0.55;0.20;;;13.80;81.50;;;;;;4955407;29;20385;-37
2021/04/12 04:53:51;;;;;;;0.38;0.30;;;13.80;52.00;;;;;;4955287;29;20031;-37
2021/04/12 04:56:25;;;;;;;1.13;0.20;;;13.80;82.30;;;;;;4955307;29;20039;-37
2021/04/12 04:59:17;;;;;;;0.40;0.28;;;13.70;82.20;;;;;;4955155;29;20023;-38
2021/04/12 05:02:00;;;;;;;0.77;0.40;;;12.80;81.60;;;;;;4955075;29;20027;-37
2021/04/12 05:04:55;;;;;;;0.75;0.30;;;13.80;81.70;;;;;;4954683;29;20446;-37
2021/04/12 05:07:43;;;;;;;1.77;0.20;;;13.90;82.90;;;;;;4954947;29;20023;-37
2021/04/12 05:10:40;;;;;;;0.32;0.15;;;14.00;82.90;;;;;;4954907;29;20035;-37
2021/04/12 05:13:14;;;;;;;0.32;0.17;;;14.40;82.90;;;;;;4954897;29;20039;-37
2021/04/12 05:15:58;;;;;;;0.20;0.20;;;14.40;82.80;;;;;;4954636;29;20055;-37
2021/04/12 05:19:10;;;;;;;0.65;0.20;;;15.00;82.10;;;;;;4954863;29;20031;-37
2021/04/12 05:21:55;;;;;;;0.40;0.30;;;15.30;53.80;;;;;;4938980;29;20098;-37
2021/04/12 05:24:57;;;;;;;0.22;0.13;;;15.40;82.00;;;;;;4954647;29;20035;-37
2021/04/12 05:28:10;;;;;;;0.55;0.43;;;15.60;82.00;;;;;;4954591;29;20041;-37
2021/04/12 05:31:14;;;;;;;0.20;0.20;;;15.80;81.70;;;;;;4950847;29;20418;-36
2021/04/12 05:34:09;;;;;;;1.08;0.30;;;16.00;82.10;;;;;;4894665;29;20052;-37
2021/04/12 05:36:53;;;;;;;1.70;0.50;;;15.80;51.30;;;;;;4894762;29;20392;-37
2021/04/12 05:39:40;;;;;;;1.15;0.20;;;15.90;80.70;;;;;;4941280;29;20434;-37
2021/04/12 05:42:26;;;;;;;1.20;0.35;;;16.00;81.30;;;;;;4954381;29;20106;-37
2021/04/12 05:45:14;;;;;;;0.43;0.20;;;16.00;80.90;;;;;;4954216;29;20047;-37
2021/04/12 05:48:17;;;;;;;0.63;0.30;;;16.00;80.50;;;;;;4954278;29;20035;-37
2021/04/12 05:51:10;;;;;;;1.48;0.50;;;16.10;81.50;;;;;;4954214;29;20031;-39
2021/04/12 05:54:04;;;;;;;0.77;0.38;;;16.20;80.80;;;;;;4954155;29;20046;-37
2021/04/12 05:57:07;;;;;;;2.67;0.45;;;16.40;81.20;;;;;;4953935;29;20727;-37
2021/04/12 05:59:56;;;;;;;0.68;0.30;;;16.50;80.70;;;;;;4954151;29;20027;-37
2021/04/12 06:02:37;;;;;;;1.27;0.32;;;16.40;49.60;;;;;;4954158;28;20027;-36
2021/04/12 06:05:10;;;;;;;0.75;0.40;;;16.40;49.40;;;;;;4953829;29;20059;-37
2021/04/12 06:08:05;;;;;;;0.40;0.25;;;16.50;50.30;;;;;;4954264;29;20047;-38
2021/04/12 06:10:45;;;;;;;3.72;0.52;;;16.70;49.20;;;;;;4953943;29;20427;-38
2021/04/12 06:13:33;;;;;;;1.23;0.50;;;16.70;48.90;;;;;;4953858;29;20038;-38
2021/04/12 06:16:17;;;;;;;1.40;0.40;;;16.80;48.90;;;;;;4954169;29;20027;-36
2021/04/12 06:19:13;;;;;;;1.40;0.45;;;16.80;48.90;;;;;;4954158;29;20031;-36
2021/04/12 06:22:10;;;;;;;3.05;0.47;;;16.70;48.90;;;;;;4954035;29;20063;-37
2021/04/12 06:24:59;;;;;;;3.70;0.30;;;16.60;49.00;;;;;;4953744;29;20470;-37
2021/04/12 06:28:16;;;;;;;3.20;0.55;;;16.60;49.30;;;;;;4954030;29;20035;-37
2021/04/12 06:31:22;;;;;;;3.10;0.30;;;16.50;49.50;;;;;;4931362;29;20062;-37
2021/04/12 06:34:08;;;;;;;1.00;0.50;;;16.40;49.50;;;;;;4953634;29;20047;-38
2021/04/12 06:36:50;;;;;;;6.80;0.50;;;16.30;49.60;;;;;;4953890;29;20023;-38
2021/04/12 06:39:35;;;;;;;1.25;0.40;;;16.80;51.10;;;;;;4953952;29;20062;-38
2021/04/12 06:42:38;;;;;;;0.47;0.28;;;16.10;49.80;;;;;;4953932;29;20390;-38
2021/04/12 06:45:30;;;;;;;1.77;0.68;;;16.00;50.10;;;;;;4953486;29;20035;-38
2021/04/12 06:48:08;;;;;;;0.55;0.30;;;16.50;51.20;;;;;;4953496;29;20023;-38
2021/04/12 06:50:39;;;;;;;1.25;0.40;;;15.80;50.40;;;;;;4955689;28;20066;-38
2021/04/12 06:53:32;;;;;;;0.80;0.40;;;15.70;51.10;;;;;;4957349;29;20137;-38
2021/04/12 06:55:58;;;;;;;0.68;0.30;;;15.80;50.40;;;;;;4957325;29;20031;-38
2021/04/12 06:58:42;;;;;;;1.05;0.40;;;15.70;50.90;;;;;;4957221;29;20034;-38
2021/04/12 07:01:22;;;;;;;1.10;0.40;;;16.00;81.10;;;;;;4957105;29;20057;-38
2021/04/12 07:04:11;;;;;;;1.17;0.45;;;15.90;50.60;;;;;;4956760;28;20051;-38
2021/04/12 07:06:44;;;;;;;2.45;0.45;;;15.90;50.60;;;;;;4951473;29;20027;-38
2021/04/12 07:09:37;;;;;;;3.83;0.47;;;16.10;50.20;;;;;;4956807;29;20035;-38
2021/04/12 07:12:38;;;;;;;2.25;0.47;;;16.20;50.20;;;;;;4956902;29;20125;-38
2021/04/12 07:15:41;;;;;;;0.70;0.20;;;16.20;50.10;;;;;;4897452;29;20036;-38
2021/04/12 07:18:46;;;;;;;1.58;0.63;;;16.20;49.50;;;;;;4956669;29;20102;-38
2021/04/12 07:21:30;;;;;;;1.38;0.38;;;16.20;49.90;;;;;;4956993;29;20073;-38
2021/04/12 07:24:19;;;;;;;0.73;0.40;;;16.10;50.60;;;;;;4956758;29;20062;-38
2021/04/12 07:27:01;;;;;;;1.17;0.30;;;16.20;50.00;;;;;;4956781;29;20383;-39
2021/04/12 07:29:50;;;;;;;1.08;0.45;;;16.10;50.90;;;;;;4956736;29;20074;-38
2021/04/12 07:32:57;;;;;;;0.95;0.30;;;16.20;50.00;;;;;;4956422;29;20047;-39
2021/04/12 07:35:49;;;;;;;1.85;0.35;;;16.20;50.00;;;;;;4956684;29;20390;-38
2021/04/12 07:38:55;;;;;;;3.83;0.55;;;16.20;50.00;;;;;;4956501;29;20380;-38
2021/04/12 07:41:52;;;;;;;2.03;0.32;;;16.10;50.00;;;;;;4956565;29;20035;-39
2021/04/12 07:44:36;;;;;;;1.70;0.40;;;16.10;50.00;;;;;;4939084;29;20034;-39
2021/04/12 07:47:23;;;;;;;0.68;0.30;;;16.00;50.00;;;;;;4956647;29;20437;-38
2021/04/12 07:50:07;;;;;;;1.02;0.38;;;15.90;50.20;;;;;;4956518;29;20364;-38
2021/04/12 07:53:10;;;;;;;2.17;0.40;;;15.80;51.10;;;;;;4956152;29;20050;-38
2021/04/12 07:55:51;;;;;;;0.68;0.32;;;16.00;50.30;;;;;;4956411;29;20031;-38
2021/04/12 07:59:00;;;;;;;1.65;0.35;;;15.70;50.20;;;;;;4956301;29;20391;-38
2021/04/12 08:02:03;;;;;;;1.85;0.38;;;15.70;50.20;;;;;;4955800;28;20531;-38
2021/04/12 08:05:06;;;;;;;0.90;0.57;;;15.50;81.90;;;;;;4955861;29;20086;-38
2021/04/12 08:08:14;;;;;;;1.90;0.45;;;15.70;50.30;;;;;;4938576;29;20398;-38
2021/04/12 08:10:58;;;;;;;2.42;0.30;;;15.50;81.50;;;;;;4933215;29;20055;-38
2021/04/12 08:14:01;;;;;;;2.13;0.40;;;15.60;51.30;;;;;;4955740;29;20390;-38
2021/04/12 08:16:42;;;;;;;2.92;0.63;;;15.70;81.20;;;;;;4955898;29;20039;-38
2021/04/12 08:19:07;;;;;;;;;;;15.60;50.30;;;;;;4956310;29;20467;-38
2021/04/12 08:22:10;;;;;;;0.68;0.52;;;15.70;81.20;;;;;;4955765;29;19957;-38
2021/04/12 08:25:13;;;;;;;1.98;0.32;;;15.60;50.40;;;;;;4955894;29;20554;-38
2021/04/12 08:28:16;;;;;;;0.60;0.30;;;15.60;50.40;;;;;;4955494;29;20116;-38
2021/04/12 08:31:00;;;;;;;2.03;0.32;;;15.70;50.30;;;;;;4955352;29;20035;-38
2021/04/12 08:34:10;;;;;;;1.35;0.38;;;15.70;51.70;;;;;;4955575;29;20043;-38
2021/04/12 08:37:07;;;;;;;0.68;0.35;;;15.90;81.40;;;;;;4895929;29;20123;-38
2021/04/12 08:39:55;;;;;;;0.30;0.28;;;15.90;50.10;;;;;;4955630;29;20370;-38
2021/04/12 08:42:44;;;;;;;0.82;0.30;;;15.80;51.60;;;;;;4955531;29;20027;-38
2021/04/12 08:45:53;;;;;;;1.25;0.20;;;15.90;50.10;;;;;;4955405;29;20031;-38
2021/04/12 08:48:46;;;;;;;0.73;0.20;;;16.20;81.60;;;;;;4954978;29;20027;-38
2021/04/12 08:51:59;;;;;;;1.40;0.40;;;16.00;51.80;;;;;;4954834;29;20042;-38
2021/04/12 08:54:55;;;;;;;1.17;0.50;;;16.30;82.30;;;;;;4895556;29;20528;-38
2021/04/12 08:57:56;;;;;;;0.50;0.28;;;16.10;81.60;;;;;;4895610;29;20504;-38
2021/04/12 09:01:02;;;;;;;1.67;0.40;;;16.10;50.40;;;;;;4948990;29;20622;-38
2021/04/12 09:03:56;;;;;;;0.90;0.40;;;16.20;82.50;;;;;;4954715;28;20043;-38
2021/04/12 09:06:55;;;;;;;0.40;0.30;;;15.90;83.00;;;;;;4954690;29;20028;-38
2021/04/12 09:09:27;;;;;;;1.75;0.40;;;16.00;51.20;;;;;;4954676;29;20036;-38
2021/04/12 09:12:17;;;;;;;1.40;0.40;;;15.90;51.40;;;;;;4954159;28;20035;-38
2021/04/12 09:15:04;;;;;;;4.72;0.45;;;15.80;51.50;;;;;;4954877;29;20034;-38
2021/04/12 09:17:47;;;;;;;2.35;0.55;;;15.80;51.60;;;;;;4954549;29;20048;-38
2021/04/12 09:20:26;;;;;;;0.85;0.30;;;15.70;53.30;;;;;;4954794;29;20027;-38
2021/04/12 09:23:10;;;;;;;2.15;0.55;;;15.60;52.90;;;;;;4954697;29;20031;-38
2021/04/12 09:26:00;;;;;;;0.63;0.28;;;15.60;51.90;;;;;;4954657;29;20411;-38
2021/04/12 09:29:01;;;;;;;4.28;0.50;;;15.60;52.70;;;;;;4954623;29;20027;-38
2021/04/12 09:31:58;;;;;;;3.95;0.80;;;15.60;53.50;;;;;;4954567;29;20122;-39
2021/04/12 09:34:54;;;;;;;1.92;0.40;;;15.70;90.20;;;;;;4954511;29;20035;-38
2021/04/12 09:38:00;;;;;;;1.00;0.40;;;15.80;59.90;;;;;;4954567;29;20390;-39
2021/04/12 09:40:26;;;;;;;1.58;0.50;;;15.60;58.90;;;;;;4954504;29;20031;-38
2021/04/12 09:43:16;;;;;;;4.32;0.50;;;15.60;61.30;;;;;;4954470;29;20086;-38
2021/04/12 09:46:12;;;;;;;0.73;0.40;;;15.70;61.40;;;;;;4954162;29;20024;-38
2021/04/12 09:48:53;;;;;;;0.75;0.30;;;15.90;62.10;;;;;;4954351;29;20035;-38
2021/04/12 09:51:56;;;;;;;0.50;0.30;;;16.00;62.80;;;;;;4954235;29;20062;-38
2021/04/12 09:54:52;;;;;;;0.32;0.20;;;16.10;92.80;;;;;;4954248;29;20034;-38
2021/04/12 09:57:48;;;;;;;0.60;0.35;;;16.20;64.00;;;;;;4954326;29;20089;-38
2021/04/12 10:00:28;;;;;;;0.88;0.30;;;16.30;64.30;;;;;;4954239;29;20031;-38
2021/04/12 10:03:42;;;;;;;0.63;0.40;;;16.30;66.90;;;;;;4953798;28;20039;-39
2021/04/12 10:06:26;;;;;;;0.60;0.40;;;16.40;65.10;;;;;;4945164;29;20039;-39
2021/04/12 10:09:05;;;;;;;0.70;0.32;;;16.80;67.70;;;;;;4953834;29;20562;-38
2021/04/12 10:11:54;;;;;;;0.65;0.38;;;16.90;93.70;;;;;;4953904;29;20043;-38
2021/04/12 10:14:30;;;;;;;0.30;0.30;;;16.50;93.60;;;;;;4953554;29;20478;-38
2021/04/12 10:17:02;;;;;;;0.55;0.32;;;16.50;68.30;;;;;;4954172;29;20031;-38
2021/04/12 10:19:48;;;;;;;0.30;0.22;;;16.50;68.90;;;;;;4953691;29;20027;-38
2021/04/12 10:22:16;;;;;;;0.43;0.40;;;16.60;68.50;;;;;;4954077;29;20031;-39
2021/04/12 10:24:57;;;;;;;0.30;0.20;;;16.60;68.40;;;;;;4956249;28;20019;-38
2021/04/12 10:27:46;;;;;;;0.45;0.35;;;16.60;68.90;;;;;;4957649;29;20380;-38
2021/04/12 10:30:30;;;;;;;0.43;0.30;;;16.70;66.30;;;;;;4958011;29;20031;-38
2021/04/12 10:32:59;;;;;;;0.35;0.30;;;16.70;66.20;;;;;;4940274;29;20486;-38
2021/04/12 10:35:50;;;;;;;0.50;0.30;;;16.90;68.20;;;;;;4957518;29;20023;-39
2021/04/12 10:38:20;;;;;;;0.95;0.45;;;16.80;66.10;;;;;;4957773;29;20034;-39
2021/04/12 10:40:47;;;;;;;0.20;0.20;;;17.10;68.30;;;;;;4957391;29;20139;-38
2021/04/12 10:43:45;;;;;;;0.50;0.20;;;17.00;68.20;;;;;;4957346;29;20039;-39
2021/04/12 10:46:20;;;;;;;2.15;0.30;;;16.90;65.70;;;;;;4949103;29;20043;-39
2021/04/12 10:48:52;;;;;;;0.30;0.30;;;17.00;68.20;;;;;;4957375;29;20023;-38
2021/04/12 10:51:57;;;;;;;0.55;0.30;;;17.20;68.30;;;;;;4957407;29;20032;-38
2021/04/12 10:54:40;;;;;;;0.30;0.30;;;16.90;65.30;;;;;;4957210;29;20027;-38
2021/04/12 10:57:09;;;;;;;1.05;0.20;;;17.00;65.10;;;;;;4957389;29;20027;-38
2021/04/12 10:59:53;;;;;;;0.55;0.20;;;17.00;64.80;;;;;;4956834;29;20034;-38
2021/04/12 11:02:21;;;;;;;0.20;0.20;;;17.00;67.50;;;;;;4956788;28;20027;-39
2021/04/12 11:04:59;;;;;;;0.40;0.30;;;17.00;67.40;;;;;;4956581;29;20059;-38
2021/04/12 11:07:52;;;;;;;0.40;0.20;;;17.10;67.20;;;;;;4956860;29;20031;-38
2021/04/12 11:10:25;;;;;;;0.45;0.35;;;17.10;64.10;;;;;;4956791;29;20047;-39
2021/04/12 11:13:03;;;;;;;0.35;0.30;;;17.10;66.60;;;;;;4957030;29;20162;-38
2021/04/12 11:15:35;;;;;;;0.28;0.20;;;17.10;63.60;;;;;;4957027;29;20393;-38
2021/04/12 11:18:32;;;;;;;1.45;0.20;;;16.90;65.80;;;;;;4956720;29;20027;-38
2021/04/12 11:21:20;;;;;;;0.28;0.28;;;16.90;63.20;;;;;;4956905;29;20027;-38
2021/04/12 11:24:22;;;;;;;0.35;0.30;;;16.80;63.00;;;;;;4956834;29;20062;-38
2021/04/12 11:27:07;;;;;;;0.25;0.17;;;16.80;62.80;;;;;;4948545;29;20506;-38
2021/04/12 11:29:41;;;;;;;0.28;0.28;;;16.60;64.90;;;;;;4956289;29;20115;-38
2021/04/12 11:32:38;;;;;;;0.57;0.30;;;16.70;64.60;;;;;;4956335;29;20071;-38
2021/04/12 11:35:15;;;;;;;0.13;0.13;;;16.70;62.10;;;;;;4955815;28;20498;-36
2021/04/12 11:37:59;;;;;;;0.22;0.20;;;16.60;64.20;;;;;;4956509;29;20356;-38
2021/04/12 11:40:34;;;;;;;0.65;0.13;;;16.60;61.70;;;;;;4956611;29;20023;-37
2021/04/12 11:43:15;;;;;;;0.22;0.22;;;16.60;63.60;;;;;;4956639;29;20027;-38
2021/04/12 11:46:03;;;;;;;0.35;0.22;;;17.30;63.70;;;;;;4956469;29;20034;-39
2021/04/12 11:48:47;;;;;;;0.50;0.20;;;16.50;63.60;;;;;;4956107;29;20583;-38
2021/04/12 11:51:24;;;;;;;0.28;0.20;;;16.50;60.90;;;;;;4956094;29;20027;-38
2021/04/12 11:54:01;;;;;;;0.32;0.32;;;16.50;60.80;;;;;;4956286;29;20046;-38
2021/04/12 11:56:36;;;;;;;0.88;0.30;;;16.40;62.60;;;;;;4956116;29;20091;-38
2021/04/12 11:59:21;;;;;;;1.15;0.40;;;16.40;62.20;;;;;;4955968;29;20027;-37
2021/04/12 12:02:01;;;;;;;0.30;0.30;;;16.50;60.20;;;;;;4948597;28;20098;-37
2021/04/12 12:04:49;;;;;;;0.30;0.20;;;16.40;60.50;;;;;;4955795;29;20043;-37
2021/04/12 12:07:17;;;;;;;0.47;0.47;;;16.40;59.70;;;;;;4956055;29;20046;-37
2021/04/12 12:10:01;;;;;;;0.30;0.30;;;16.40;56.90;;;;;;4938459;29;20027;-36
2021/04/12 12:12:53;;;;;;;1.25;0.50;;;16.30;56.50;;;;;;4955705;29;20517;-37
2021/04/12 12:15:25;;;;;;;0.50;0.30;;;16.40;56.60;;;;;;4956059;29;20426;-37
2021/04/12 12:18:03;;;;;;;0.52;0.30;;;16.30;59.00;;;;;;4955667;29;20033;-37
2021/04/12 12:20:36;;;;;;;0.63;0.40;;;16.40;56.70;;;;;;4956001;29;20035;-37
2021/04/12 12:23:31;;;;;;;0.45;0.32;;;16.40;58.80;;;;;;4955812;29;20051;-37
2021/04/12 12:26:01;;;;;;;1.10;0.40;;;16.40;56.50;;;;;;4955734;29;20046;-37
2021/04/12 12:28:42;;;;;;;0.52;0.30;;;16.40;58.60;;;;;;4955735;29;20027;-37
2021/04/12 12:31:35;;;;;;;0.45;0.20;;;16.40;58.40;;;;;;4938103;29;20027;-37
2021/04/12 12:34:30;;;;;;;0.57;0.30;;;16.50;56.50;;;;;;4955535;29;20434;-37
2021/04/12 12:37:01;;;;;;;0.82;0.40;;;16.70;56.30;;;;;;4955698;29;20419;-36
2021/04/12 12:39:49;;;;;;;0.68;0.40;;;16.70;56.10;;;;;;4955308;29;20038;-37
2021/04/12 12:42:41;;;;;;;0.20;0.20;;;17.00;88.70;;;;;;4955397;29;20054;-37
2021/04/12 12:45:18;;;;;;;0.30;0.30;;;16.80;56.00;;;;;;4955373;29;20381;-37
2021/04/12 12:47:50;;;;;;;0.63;0.47;;;17.10;58.50;;;;;;4938083;29;20084;-37
2021/04/12 12:50:27;;;;;;;0.32;0.32;;;17.00;88.50;;;;;;4954999;29;20486;-37
2021/04/12 12:52:58;;;;;;;2.83;0.60;;;17.30;88.30;;;;;;4955234;29;20466;-37
2021/04/12 12:55:30;;;;;;;0.45;0.30;;;17.20;87.80;;;;;;4955175;29;20035;-37
2021/04/12 12:58:06;;;;;;;0.30;0.30;;;17.10;57.20;;;;;;4955021;29;20027;-37
2021/04/12 13:00:44;;;;;;;0.82;0.30;;;17.10;56.80;;;;;;4954764;28;20073;-37
2021/04/12 13:03:38;;;;;;;0.28;0.28;;;17.10;87.90;;;;;;4954851;29;20052;-37
2021/04/12 13:06:27;;;;;;;0.43;0.30;;;17.00;72.20;;;;;;4955003;29;20070;-38
2021/04/12 13:08:54;;;;;;;0.30;0.30;;;17.00;87.00;;;;;;4954699;29;20042;-38
2021/04/12 13:11:37;;;;;;;0.45;0.30;;;16.90;86.90;;;;;;4954754;29;20058;-38
2021/04/12 13:14:32;;;;;;;1.45;0.30;;;16.80;56.60;;;;;;4954883;29;20020;-38
2021/04/12 13:17:01;;;;;;;0.30;0.30;;;16.80;86.90;;;;;;4954460;29;20027;-38
2021/04/12 13:19:43;;;;;;;0.50;0.40;;;16.70;56.50;;;;;;4954302;29;20078;-38
2021/04/12 13:22:09;;;;;;;0.38;0.30;;;16.70;87.00;;;;;;4954594;29;20398;-38
2021/04/12 13:24:36;;;;;;;0.82;0.30;;;16.70;86.60;;;;;;4954546;29;20016;-38
2021/04/12 13:27:18;;;;;;;0.90;0.40;;;16.80;86.20;;;;;;4953610;29;20031;-38
2021/04/12 13:30:01;;;;;;;0.47;0.30;;;16.70;86.60;;;;;;4953667;29;20046;-38
2021/04/12 13:32:32;;;;;;;0.57;0.40;;;16.60;86.40;;;;;;4953698;29;20046;-38
2021/04/12 13:35:06;;;;;;;1.75;0.25;;;16.60;55.50;;;;;;4953371;29;20019;-37
2021/04/12 13:37:40;;;;;;;0.43;0.30;;;16.50;86.00;;;;;;4953327;29;20023;-38
2021/04/12 13:40:17;;;;;;;0.15;0.15;;;16.50;87.00;;;;;;4953257;29;20015;-38
2021/04/12 13:43:01;;;;;;;0.47;0.30;;;16.40;55.00;;;;;;4954006;29;20078;-38
2021/04/12 13:45:37;;;;;;;0.20;0.20;;;16.50;86.20;;;;;;4954566;29;20094;-39
2021/04/12 13:48:24;;;;;;;0.85;0.30;;;16.80;61.60;;;;;;4936882;29;20123;-38
2021/04/12 13:50:57;;;;;;;0.38;0.30;;;16.50;52.60;;;;;;4954137;29;20035;-38
2021/04/12 13:53:34;;;;;;;0.73;0.40;;;16.50;84.70;;;;;;4954315;29;20435;-38
2021/04/12 13:56:16;;;;;;;0.20;0.20;;;16.50;52.70;;;;;;4953787;29;20031;-38
2021/04/12 13:59:03;;;;;;;0.40;0.20;;;16.90;86.00;;;;;;4953708;29;20035;-38
2021/04/12 14:01:50;;;;;;;1.42;0.40;;;16.90;85.40;;;;;;4954281;29;20693;-38
2021/04/12 14:04:22;;;;;;;0.47;0.35;;;16.70;55.00;;;;;;4953953;29;20051;-38
2021/04/12 14:07:00;;;;;;;0.70;0.40;;;16.80;83.90;;;;;;4954244;29;20046;-38
2021/04/12 14:09:33;;;;;;;0.98;0.30;;;16.80;54.10;;;;;;4954180;29;20026;-38
2021/04/12 14:12:01;;;;;;;0.75;0.40;;;16.80;54.10;;;;;;4953868;29;20035;-38
2021/04/12 14:14:32;;;;;;;0.38;0.20;;;16.70;53.40;;;;;;4953860;29;20058;-38
2021/04/12 14:17:13;;;;;;;0.43;0.25;;;17.30;54.00;;;;;;4954152;29;20027;-38
2021/04/12 14:19:46;;;;;;;1.20;0.30;;;16.90;53.90;;;;;;4954470;29;20030;-39
2021/04/12 14:22:19;;;;;;;3.38;0.30;;;16.90;53.30;;;;;;4953999;29;20028;-38
2021/04/12 14:24:54;;;;;;;0.60;0.50;;;17.40;53.70;;;;;;4953755;29;20019;-38
2021/04/12 14:27:19;;;;;;;1.17;0.40;;;17.30;53.40;;;;;;4936563;29;20101;-38